Time;durP1;ratioP1;P1;durP2;ratioP2;P2;SDS_P1;SDS_P2;PMS_P1;PMS_P2;Temp;Humidity;BMP_temperature;BMP_pressure;BME280_temperature;BME280_humidity;BME280_pressure;Samples;Min_cycle;Max_cycle;Signal;HPM_P1;HPM_P2
2024/03/02 00:02:07;;;;;;;0.30;0.30;;;;;;;6.72;93.95;97965.44;5042757;28;20784;-58
2024/03/02 00:04:35;;;;;;;0.40;0.40;;;;;;;6.70;94.33;97976.31;5035142;28;20141;-58
2024/03/02 00:07:03;;;;;;;0.40;0.40;;;;;;;6.81;93.54;97973.78;5034550;28;20048;-58
2024/03/02 00:09:30;;;;;;;0.40;0.40;;;;;;;6.87;93.84;97972.81;5033878;28;20049;-58
2024/03/02 00:11:57;;;;;;;0.30;0.30;;;;;;;6.83;93.49;97971.69;5032054;28;20112;-61
2024/03/02 00:14:25;;;;;;;0.40;0.40;;;;;;;6.77;93.63;97964.69;5033216;28;20068;-56
2024/03/02 00:16:53;;;;;;;0.30;0.30;;;;;;;6.82;94.82;97970.09;5029211;28;20041;-57
2024/03/02 00:19:20;;;;;;;0.40;0.40;;;;;;;6.80;93.25;97967.66;5039656;28;20037;-58
2024/03/02 00:21:48;;;;;;;0.30;0.30;;;;;;;6.76;93.21;97966.53;5035337;28;20073;-58
2024/03/02 00:24:20;;;;;;;0.40;0.40;;;;;;;6.81;92.84;97963.13;5035402;28;20254;-57
2024/03/02 00:26:47;;;;;;;0.40;0.40;;;;;;;6.92;91.96;97967.53;5030849;28;20099;-58
2024/03/02 00:29:14;;;;;;;0.40;0.40;;;;;;;6.85;92.15;97958.94;5050392;28;20107;-56
2024/03/02 00:31:41;;;;;;;0.40;0.40;;;;;;;6.79;92.28;97957.25;5029573;28;20049;-58
2024/03/02 00:34:10;;;;;;;0.38;0.38;;;;;;;6.86;92.07;97955.19;5040401;28;20414;-57
2024/03/02 00:36:38;;;;;;;0.30;0.30;;;;;;;6.87;91.71;97962.94;5034611;28;20051;-57
2024/03/02 00:39:07;;;;;;;0.40;0.40;;;;;;;6.81;91.81;97952.47;5039862;28;20049;-58
2024/03/02 00:41:35;;;;;;;0.35;0.35;;;;;;;6.80;91.57;97946.34;5030980;28;20147;-58
2024/03/02 00:44:03;;;;;;;0.40;0.40;;;;;;;6.83;91.45;97956.50;5038316;28;20403;-58
2024/03/02 00:46:30;;;;;;;0.30;0.30;;;;;;;6.84;91.09;97946.63;5039847;28;20045;-57
2024/03/02 00:48:58;;;;;;;0.40;0.40;;;;;;;6.73;91.81;97943.06;5037061;28;20060;-58
2024/03/02 00:51:26;;;;;;;0.30;0.30;;;;;;;6.77;91.13;97940.72;5038491;28;20048;-58
2024/03/02 00:53:55;;;;;;;0.30;0.30;;;;;;;6.80;91.15;97932.22;5033424;28;20146;-58
2024/03/02 00:56:24;;;;;;;0.40;0.40;;;;;;;6.74;91.11;97930.56;5033622;28;20053;-58
2024/03/02 00:58:51;;;;;;;0.30;0.30;;;;;;;6.70;90.48;97931.06;5034416;28;20038;-58
2024/03/02 01:01:18;;;;;;;0.30;0.30;;;;;;;6.68;91.23;97932.34;5035560;28;20192;-58
2024/03/02 01:03:45;;;;;;;0.40;0.40;;;;;;;6.62;90.98;97928.03;5039282;28;20099;-58
2024/03/02 01:06:12;;;;;;;0.30;0.30;;;;;;;6.51;91.30;97929.75;5032324;28;20041;-58
2024/03/02 01:08:39;;;;;;;0.40;0.40;;;;;;;6.57;91.02;97928.78;5033924;28;20139;-58
2024/03/02 01:11:06;;;;;;;0.38;0.38;;;;;;;6.44;91.88;97937.13;5029706;28;20144;-57
2024/03/02 01:13:35;;;;;;;0.40;0.40;;;;;;;6.48;91.41;97923.06;5033016;28;20068;-58
2024/03/02 01:16:02;;;;;;;0.40;0.40;;;;;;;6.42;91.67;97917.94;5037053;28;20475;-58
2024/03/02 01:18:30;;;;;;;0.40;0.40;;;;;;;6.37;91.53;97925.88;5029306;28;20052;-58
2024/03/02 01:20:57;;;;;;;0.40;0.40;;;;;;;6.33;91.83;97922.09;5036070;28;20175;-58
2024/03/02 01:23:24;;;;;;;0.40;0.40;;;;;;;6.33;91.54;97908.78;5035795;28;20278;-58
2024/03/02 01:25:52;;;;;;;0.50;0.50;;;;;;;6.31;91.77;97908.22;5037756;28;20527;-60
2024/03/02 01:28:20;;;;;;;0.38;0.38;;;;;;;6.29;92.25;97924.44;5034900;28;20049;-58
2024/03/02 01:30:49;;;;;;;0.40;0.40;;;;;;;6.28;92.17;97922.03;5031547;28;20144;-58
2024/03/02 01:33:16;;;;;;;0.50;0.50;;;;;;;6.25;92.75;97924.13;5032604;28;20051;-58
2024/03/02 01:35:46;;;;;;;0.50;0.50;;;;;;;6.28;92.88;97922.03;5031989;28;20052;-58
2024/03/02 01:38:13;;;;;;;0.40;0.40;;;;;;;6.19;93.13;97925.13;5042614;28;20523;-58
2024/03/02 01:40:40;;;;;;;0.40;0.40;;;;;;;6.20;93.17;97920.59;5033783;28;20104;-57
2024/03/02 01:43:08;;;;;;;0.40;0.40;;;;;;;6.14;93.83;97921.56;5030874;28;20136;-58
2024/03/02 01:45:35;;;;;;;0.45;0.45;;;;;;;6.08;93.80;97923.34;5034209;28;20136;-57
2024/03/02 01:48:04;;;;;;;0.40;0.40;;;;;;;6.16;93.97;97917.59;5028460;28;20059;-58
2024/03/02 01:50:33;;;;;;;0.40;0.40;;;;;;;6.21;93.22;97915.00;5028375;28;20611;-57
2024/03/02 01:53:00;;;;;;;0.40;0.40;;;;;;;6.08;94.62;97912.72;5031714;28;20160;-57
2024/03/02 01:55:29;;;;;;;0.30;0.30;;;;;;;6.16;94.29;97914.94;5037465;28;20053;-57
2024/03/02 01:57:55;;;;;;;0.40;0.40;;;;;;;6.16;94.20;97906.16;5040370;28;20045;-56
2024/03/02 02:00:24;;;;;;;0.40;0.40;;;;;;;6.22;93.36;97911.31;5037044;28;20076;-57
2024/03/02 02:02:51;;;;;;;0.40;0.40;;;;;;;6.16;93.67;97909.63;5034932;28;20045;-57
2024/03/02 02:05:20;;;;;;;0.40;0.40;;;;;;;6.22;93.85;97908.66;5035479;28;20745;-57
2024/03/02 02:07:47;;;;;;;0.40;0.40;;;;;;;6.19;93.97;97903.00;5031931;28;20045;-58
2024/03/02 02:10:14;;;;;;;0.40;0.40;;;;;;;6.17;94.57;97905.94;5038074;28;20057;-57
2024/03/02 02:12:41;;;;;;;0.50;0.50;;;;;;;6.18;94.53;97899.53;5031866;28;20897;-58
2024/03/02 02:15:23;;;;;;;0.40;0.40;;;;;;;6.15;94.54;97896.56;5035493;28;20516;-58
2024/03/02 02:17:50;;;;;;;0.50;0.50;;;;;;;6.14;94.18;97900.28;5030584;28;20044;-58
2024/03/02 02:20:18;;;;;;;0.30;0.30;;;;;;;6.03;94.76;97888.69;5030448;28;20056;-58
2024/03/02 02:22:59;;;;;;;0.40;0.40;;;;;;;5.96;95.46;97888.88;5026558;28;20052;-57
2024/03/02 02:25:26;;;;;;;0.40;0.40;;;;;;;6.00;96.14;97894.53;5028354;28;20344;-57
2024/03/02 02:27:53;;;;;;;0.40;0.40;;;;;;;5.95;96.83;97881.16;5036366;28;20045;-57
2024/03/02 02:30:21;;;;;;;0.30;0.30;;;;;;;5.90;96.99;97887.16;5035884;28;20087;-58
2024/03/02 02:32:48;;;;;;;0.50;0.50;;;;;;;5.90;97.02;97883.72;5033498;28;20092;-58
2024/03/02 02:35:15;;;;;;;0.50;0.50;;;;;;;5.93;96.53;97878.69;5034080;28;20546;-58
2024/03/02 02:37:42;;;;;;;0.40;0.40;;;;;;;5.87;96.30;97876.22;5031450;28;20151;-58
2024/03/02 02:40:12;;;;;;;0.45;0.45;;;;;;;5.90;96.41;97871.22;5032680;28;20167;-57
2024/03/02 02:42:39;;;;;;;0.40;0.40;;;;;;;5.78;96.81;97867.84;5032927;28;20136;-58
2024/03/02 02:45:07;;;;;;;0.35;0.35;;;;;;;5.88;96.17;97869.84;5036667;28;20293;-58
2024/03/02 02:47:35;;;;;;;0.40;0.40;;;;;;;5.87;95.51;97860.28;5033483;28;20091;-58
2024/03/02 02:50:03;;;;;;;0.40;0.40;;;;;;;5.92;95.29;97853.16;5027171;28;20048;-58
2024/03/02 02:52:35;;;;;;;0.47;0.47;;;;;;;5.89;94.92;97864.28;5034866;28;20057;-58
2024/03/02 02:55:04;;;;;;;0.30;0.30;;;;;;;5.95;94.59;97862.53;5035494;28;20484;-58
2024/03/02 02:57:35;;;;;;;0.40;0.40;;;;;;;5.81;95.71;97860.19;5021259;28;20492;-57
2024/03/02 03:00:09;;;;;;;0.47;0.47;;;;;;;5.73;96.30;97859.81;5037478;28;20449;-58
2024/03/02 03:02:41;;;;;;;0.50;0.50;;;;;;;5.75;95.96;97865.69;5031398;28;20500;-57
2024/03/02 03:05:09;;;;;;;0.40;0.40;;;;;;;5.63;97.75;97857.81;5032984;28;20701;-58
2024/03/02 03:07:36;;;;;;;0.30;0.30;;;;;;;5.54;99.12;97860.06;5031745;28;20074;-58
2024/03/02 03:10:04;;;;;;;0.40;0.40;;;;;;;5.56;98.89;97855.31;5035862;28;20448;-58
2024/03/02 03:12:32;;;;;;;0.45;0.45;;;;;;;5.45;99.68;97866.03;5031063;28;20052;-58
2024/03/02 03:14:59;;;;;;;0.50;0.50;;;;;;;5.40;100.00;97872.06;5030905;28;20073;-58
2024/03/02 03:17:28;;;;;;;0.40;0.40;;;;;;;5.43;99.73;97868.94;5027132;28;20048;-58
2024/03/02 03:19:55;;;;;;;0.40;0.40;;;;;;;5.50;99.32;97874.88;5029682;28;20060;-58
2024/03/02 03:22:23;;;;;;;0.50;0.50;;;;;;;5.44;99.58;97869.72;5036717;28;20045;-57
2024/03/02 03:24:50;;;;;;;0.40;0.40;;;;;;;5.50;98.99;97876.75;5035056;28;20033;-58
2024/03/02 03:27:17;;;;;;;0.40;0.40;;;;;;;5.59;97.71;97883.25;5036063;28;20080;-58
2024/03/02 03:29:45;;;;;;;0.40;0.40;;;;;;;5.65;96.98;97882.28;5027250;28;20052;-58
2024/03/02 03:32:13;;;;;;;0.45;0.45;;;;;;;5.60;97.05;97875.03;5026221;28;20124;-58
2024/03/02 03:34:40;;;;;;;0.40;0.40;;;;;;;5.62;97.52;97880.94;5034945;28;20560;-58
2024/03/02 03:37:07;;;;;;;0.30;0.30;;;;;;;5.61;97.35;97873.19;5036613;28;20098;-58
2024/03/02 03:39:35;;;;;;;0.40;0.40;;;;;;;5.62;97.44;97866.84;5034686;28;20069;-58
2024/03/02 03:42:02;;;;;;;0.40;0.40;;;;;;;5.68;96.87;97868.50;5033577;28;20060;-58
2024/03/02 03:44:29;;;;;;;0.40;0.40;;;;;;;5.80;95.95;97874.53;5036436;28;20659;-58
2024/03/02 03:46:58;;;;;;;0.40;0.40;;;;;;;5.78;95.93;97862.53;5030119;28;20133;-58
2024/03/02 03:49:25;;;;;;;0.43;0.43;;;;;;;5.84;96.20;97873.00;5025962;28;20129;-57
2024/03/02 03:51:52;;;;;;;0.43;0.43;;;;;;;5.84;95.69;97880.16;5028282;28;20507;-58
2024/03/02 03:54:19;;;;;;;0.40;0.40;;;;;;;5.89;95.29;97877.59;5033153;28;20407;-56
2024/03/02 03:56:46;;;;;;;0.50;0.50;;;;;;;5.98;94.98;97883.31;5030048;28;20046;-58
2024/03/02 03:59:13;;;;;;;0.40;0.40;;;;;;;6.02;94.92;97877.25;5033621;28;20114;-58
2024/03/02 04:01:40;;;;;;;0.40;0.40;;;;;;;5.93;94.79;97878.69;5034411;28;20495;-57
2024/03/02 04:04:09;;;;;;;0.50;0.50;;;;;;;6.00;95.17;97883.88;5039825;28;20045;-57
2024/03/02 04:06:36;;;;;;;0.40;0.40;;;;;;;5.97;95.30;97879.06;5029788;28;20076;-58
2024/03/02 04:09:04;;;;;;;0.40;0.40;;;;;;;5.89;95.47;97877.59;5036795;28;20061;-57
2024/03/02 04:11:31;;;;;;;0.40;0.40;;;;;;;5.97;95.39;97873.75;5033156;28;20056;-57
2024/03/02 04:13:58;;;;;;;0.40;0.40;;;;;;;5.96;95.15;97872.13;5034161;28;20112;-57
2024/03/02 04:16:26;;;;;;;0.35;0.35;;;;;;;5.98;95.84;97875.34;5041627;28;20056;-57
2024/03/02 04:18:53;;;;;;;0.50;0.50;;;;;;;5.83;96.25;97878.56;5038588;28;20523;-57
2024/03/02 04:21:21;;;;;;;0.40;0.40;;;;;;;5.86;96.61;97874.59;5034364;28;20095;-58
2024/03/02 04:23:48;;;;;;;0.50;0.50;;;;;;;5.87;96.50;97873.56;5038376;28;20068;-57
2024/03/02 04:26:19;;;;;;;0.40;0.40;;;;;;;5.75;96.43;97871.81;5036002;28;20549;-57
2024/03/02 04:28:46;;;;;;;0.40;0.40;;;;;;;5.82;95.92;97872.44;5025834;28;20438;-56
2024/03/02 04:31:13;;;;;;;0.38;0.38;;;;;;;5.82;96.04;97875.09;5029402;28;20073;-57
2024/03/02 04:33:40;;;;;;;0.40;0.40;;;;;;;5.89;96.52;97884.75;5034670;28;20212;-57
2024/03/02 04:36:09;;;;;;;0.50;0.50;;;;;;;5.88;95.95;97885.81;5034795;28;20053;-58
2024/03/02 04:38:37;;;;;;;0.35;0.35;;;;;;;5.80;96.23;97882.50;5038484;28;20080;-58
2024/03/02 04:41:05;;;;;;;0.40;0.40;;;;;;;5.81;96.52;97891.28;5033402;28;20037;-57
2024/03/02 04:43:32;;;;;;;0.40;0.40;;;;;;;5.86;96.32;97896.66;5040082;28;20051;-58
2024/03/02 04:45:59;;;;;;;0.30;0.30;;;;;;;5.79;96.71;97899.53;5033470;28;20051;-58
2024/03/02 04:48:26;;;;;;;0.40;0.40;;;;;;;5.70;97.75;97910.81;5036775;28;20159;-58
2024/03/02 04:50:53;;;;;;;0.40;0.40;;;;;;;5.74;98.18;97915.41;5037903;28;20067;-58
2024/03/02 04:53:21;;;;;;;0.40;0.40;;;;;;;5.77;98.53;97914.91;5032635;28;20772;-58
2024/03/02 04:58:33;;;;;;;0.40;0.40;;;;;;;5.80;99.17;97918.94;5034486;28;20134;-57
2024/03/02 05:01:00;;;;;;;0.40;0.40;;;;;;;5.75;99.95;97914.34;5036093;28;20037;-58
2024/03/02 05:03:27;;;;;;;0.40;0.40;;;;;;;5.81;100.00;97917.88;5039428;28;20159;-56
2024/03/02 05:05:55;;;;;;;0.50;0.50;;;;;;;5.74;100.00;97925.22;5032180;28;20041;-58
2024/03/02 05:08:22;;;;;;;0.40;0.40;;;;;;;5.76;100.00;97931.09;5034238;28;20038;-58
2024/03/02 05:10:51;;;;;;;0.40;0.40;;;;;;;5.71;100.00;97934.47;5036886;28;20061;-58
2024/03/02 05:13:17;;;;;;;0.45;0.45;;;;;;;5.69;100.00;97939.25;5034077;28;20041;-57
2024/03/02 05:15:44;;;;;;;0.32;0.32;;;;;;;5.62;100.00;97936.75;5041223;28;20044;-58
2024/03/02 05:18:11;;;;;;;0.32;0.32;;;;;;;5.69;100.00;97941.91;5035716;28;20132;-58
2024/03/02 05:20:38;;;;;;;0.40;0.40;;;;;;;5.74;100.00;97928.69;5034001;28;20144;-58
2024/03/02 05:23:05;;;;;;;0.40;0.40;;;;;;;5.81;100.00;97933.81;5027417;28;20073;-58
2024/03/02 05:25:35;;;;;;;0.50;0.50;;;;;;;5.86;100.00;97931.25;5033082;28;20135;-56
2024/03/02 05:28:04;;;;;;;0.30;0.30;;;;;;;5.78;100.00;97932.47;5032142;28;20038;-58
2024/03/02 05:30:31;;;;;;;0.40;0.40;;;;;;;5.69;100.00;97936.59;5032202;28;20052;-58
2024/03/02 05:32:58;;;;;;;0.40;0.40;;;;;;;5.66;100.00;97941.56;5032809;28;20049;-56
2024/03/02 05:35:25;;;;;;;0.40;0.40;;;;;;;5.73;100.00;97942.22;5039803;28;20076;-58
2024/03/02 05:37:52;;;;;;;0.50;0.50;;;;;;;5.73;100.00;97942.22;5035266;28;20758;-57
2024/03/02 05:40:19;;;;;;;0.50;0.50;;;;;;;5.64;100.00;97944.47;5037960;28;20148;-58
2024/03/02 05:42:46;;;;;;;0.40;0.40;;;;;;;5.59;100.00;97942.56;5037762;28;20067;-57
2024/03/02 05:45:18;;;;;;;0.38;0.38;;;;;;;5.65;100.00;97951.41;5033575;28;20045;-58
2024/03/02 05:47:44;;;;;;;0.40;0.40;;;;;;;5.56;100.00;97936.91;5034266;28;20118;-58
2024/03/02 05:50:11;;;;;;;0.40;0.40;;;;;;;5.58;100.00;97940.13;5033559;28;20049;-57
2024/03/02 05:52:38;;;;;;;0.50;0.50;;;;;;;5.57;100.00;97938.53;5032993;28;20758;-58
2024/03/02 05:55:06;;;;;;;0.40;0.40;;;;;;;5.63;100.00;97930.38;5017272;28;20577;-58
2024/03/02 05:57:47;;;;;;;0.57;0.57;;;;;;;5.75;100.00;97940.94;5032358;28;20073;-58
2024/03/02 06:00:17;;;;;;;0.40;0.40;;;;;;;5.85;100.00;97945.59;5027797;28;20674;-57
2024/03/02 06:02:44;;;;;;;0.40;0.40;;;;;;;5.88;100.00;97949.63;5035485;28;20045;-58
2024/03/02 06:05:11;;;;;;;0.43;0.43;;;;;;;5.96;99.85;97949.25;5028570;28;21425;-58
2024/03/02 06:07:38;;;;;;;0.50;0.50;;;;;;;5.96;100.00;97938.59;5034323;28;20051;-57
2024/03/02 06:10:07;;;;;;;0.50;0.50;;;;;;;5.93;100.00;97949.69;5037277;28;20122;-58
2024/03/02 06:12:34;;;;;;;0.40;0.40;;;;;;;5.88;100.00;97957.59;5035221;28;20159;-57
2024/03/02 06:15:01;;;;;;;0.43;0.43;;;;;;;5.99;100.00;97943.41;5032833;28;20384;-58
2024/03/02 06:17:30;;;;;;;0.40;0.40;;;;;;;6.06;100.00;97957.38;5030797;28;20052;-57
2024/03/02 06:19:57;;;;;;;0.38;0.38;;;;;;;6.13;100.00;97960.66;5029892;28;20076;-58
2024/03/02 06:22:25;;;;;;;0.40;0.40;;;;;;;6.14;100.00;97964.94;5032858;28;20045;-58
2024/03/02 06:24:53;;;;;;;0.40;0.40;;;;;;;6.02;100.00;97964.25;5028372;28;20041;-58
2024/03/02 06:27:20;;;;;;;0.40;0.40;;;;;;;6.01;100.00;97971.38;5027690;28;20041;-58
2024/03/02 06:29:48;;;;;;;0.40;0.40;;;;;;;6.08;100.00;97976.56;5028129;28;20132;-58
2024/03/02 06:32:15;;;;;;;0.40;0.40;;;;;;;5.94;100.00;97983.25;5030422;28;20051;-58
2024/03/02 06:34:46;;;;;;;0.40;0.40;;;;;;;6.06;100.00;97981.31;5040460;28;20898;-58
2024/03/02 06:37:14;;;;;;;0.40;0.40;;;;;;;6.09;99.81;97986.16;5027213;28;20086;-58
2024/03/02 06:39:42;;;;;;;0.40;0.40;;;;;;;6.12;99.73;97998.16;5034699;28;20542;-58
2024/03/02 06:42:09;;;;;;;0.40;0.40;;;;;;;6.20;99.42;97995.88;5046480;28;20077;-58
2024/03/02 06:44:36;;;;;;;0.50;0.50;;;;;;;6.14;99.07;98001.38;5028874;28;20080;-58
2024/03/02 06:47:03;;;;;;;0.30;0.30;;;;;;;6.22;98.44;97987.66;5029418;28;20037;-58
2024/03/02 06:49:30;;;;;;;0.50;0.50;;;;;;;6.13;98.82;98000.56;5034780;28;20049;-58
2024/03/02 06:51:59;;;;;;;0.40;0.40;;;;;;;6.16;97.78;97992.09;5027107;28;20076;-57
2024/03/02 06:54:26;;;;;;;0.50;0.50;;;;;;;6.19;98.61;97988.13;5031425;28;20041;-57
2024/03/02 06:56:53;;;;;;;0.50;0.50;;;;;;;6.24;98.19;97991.69;5031271;28;20496;-58
2024/03/02 06:59:20;;;;;;;0.60;0.60;;;;;;;6.94;94.43;97988.56;5034000;28;20052;-57
2024/03/02 07:01:48;;;;;;;0.60;0.60;;;;;;;7.08;91.32;97995.13;5030886;28;20377;-58
2024/03/02 07:04:15;;;;;;;0.50;0.50;;;;;;;7.80;87.02;97993.97;5050506;28;20048;-58
2024/03/02 07:06:42;;;;;;;0.47;0.47;;;;;;;7.09;89.26;98002.88;5033641;28;20550;-58
2024/03/02 07:09:11;;;;;;;0.50;0.50;;;;;;;7.17;89.52;97998.19;5028377;28;20051;-59
2024/03/02 07:11:38;;;;;;;0.50;0.50;;;;;;;7.39;88.44;97998.94;5027819;28;20045;-58
2024/03/02 07:14:05;;;;;;;0.50;0.50;;;;;;;7.41;88.01;97996.81;5030104;28;20067;-59
2024/03/02 07:16:34;;;;;;;0.57;0.57;;;;;;;7.48;87.37;97988.63;5032769;28;20144;-58
2024/03/02 07:19:01;;;;;;;0.30;0.30;;;;;;;6.98;89.93;97987.03;5017547;28;20038;-58
2024/03/02 07:21:28;;;;;;;0.45;0.45;;;;;;;6.92;91.77;97986.19;5013306;28;20068;-57
2024/03/02 07:23:56;;;;;;;0.20;0.20;;;;;;;6.78;93.32;98000.91;5017798;28;20128;-58
2024/03/02 07:26:24;;;;;;;0.50;0.50;;;;;;;6.62;92.87;97979.44;5022983;28;20061;-58
2024/03/02 07:28:51;;;;;;;0.40;0.40;;;;;;;6.63;93.93;97994.34;5029232;28;20080;-58
2024/03/02 07:31:18;;;;;;;0.50;0.50;;;;;;;6.48;94.56;98010.91;5023411;28;20057;-58
2024/03/02 07:33:46;;;;;;;0.40;0.40;;;;;;;6.83;92.63;98008.97;5034727;28;20072;-58
2024/03/02 07:36:13;;;;;;;0.30;0.30;;;;;;;7.16;91.78;98004.53;5029209;28;20049;-58
2024/03/02 07:38:40;;;;;;;0.50;0.50;;;;;;;6.75;92.14;98010.19;5034859;28;20048;-58
2024/03/02 07:41:08;;;;;;;0.60;0.60;;;;;;;7.30;89.58;98009.22;5020930;28;20037;-57
2024/03/02 07:43:36;;;;;;;0.60;0.60;;;;;;;7.65;86.22;98023.19;5036279;28;20053;-58
2024/03/02 07:46:04;;;;;;;0.47;0.47;;;;;;;8.47;81.72;98015.81;5035985;28;20076;-57
2024/03/02 07:48:31;;;;;;;0.30;0.30;;;;;;;8.79;77.11;98005.84;5037616;28;20880;-58
2024/03/02 07:50:58;;;;;;;0.50;0.50;;;;;;;9.25;76.93;98016.69;5037785;28;20152;-58
2024/03/02 07:53:28;;;;;;;0.30;0.30;;;;;;;9.21;77.06;98029.00;5036713;28;20834;-58
2024/03/02 07:55:57;;;;;;;0.40;0.40;;;;;;;9.91;75.48;98028.59;5031152;28;20049;-58
2024/03/02 07:58:24;;;;;;;0.30;0.30;;;;;;;8.20;80.98;98038.84;5025759;28;20137;-58
2024/03/02 08:00:52;;;;;;;0.47;0.47;;;;;;;8.78;79.05;98030.13;5029703;28;20053;-57
2024/03/02 08:03:19;;;;;;;0.20;0.20;;;;;;;8.32;81.07;98029.84;5037228;28;20156;-58
2024/03/02 08:05:46;;;;;;;0.40;0.40;;;;;;;7.78;84.67;98034.22;5023589;28;20052;-58
2024/03/02 08:08:13;;;;;;;0.40;0.40;;;;;;;7.71;84.12;98035.47;5022445;28;20151;-58
2024/03/02 08:10:40;;;;;;;0.50;0.50;;;;;;;8.79;80.73;98024.53;5021400;28;20057;-58
2024/03/02 08:13:07;;;;;;;0.40;0.40;;;;;;;8.97;78.25;98027.81;5023928;28;20044;-57
2024/03/02 08:15:34;;;;;;;0.40;0.40;;;;;;;9.26;78.82;98025.50;5033381;28;20071;-58
2024/03/02 08:18:03;;;;;;;0.40;0.40;;;;;;;9.42;76.49;98015.66;5038160;28;20124;-58
2024/03/02 08:20:31;;;;;;;0.30;0.30;;;;;;;10.01;76.00;98017.88;5033640;28;20057;-58
2024/03/02 08:22:58;;;;;;;0.30;0.30;;;;;;;9.66;75.60;98015.97;5036360;28;20049;-58
2024/03/02 08:25:25;;;;;;;0.30;0.30;;;;;;;9.46;75.52;98011.38;5039559;28;20766;-58
2024/03/02 08:27:52;;;;;;;0.30;0.30;;;;;;;9.38;77.08;98015.38;5037208;28;20069;-57
2024/03/02 08:30:19;;;;;;;0.30;0.30;;;;;;;9.74;74.14;98017.34;5024549;28;20160;-57
2024/03/02 08:32:47;;;;;;;0.30;0.30;;;;;;;10.53;71.70;98022.13;5036486;28;20063;-58
2024/03/02 08:35:15;;;;;;;0.35;0.35;;;;;;;10.07;73.09;98022.16;5038075;28;20748;-57
2024/03/02 08:37:43;;;;;;;0.40;0.40;;;;;;;9.58;74.92;98017.28;5032100;28;20045;-58
2024/03/02 08:40:11;;;;;;;0.30;0.30;;;;;;;9.54;75.03;98013.56;5030666;28;20657;-57
2024/03/02 08:42:38;;;;;;;0.40;0.40;;;;;;;9.19;76.09;98030.31;5033774;28;20531;-58
2024/03/02 08:45:06;;;;;;;0.40;0.40;;;;;;;10.33;73.99;98024.81;5032265;28;20037;-57
2024/03/02 08:47:33;;;;;;;0.40;0.40;;;;;;;11.07;70.61;98022.50;5035863;28;20056;-58
2024/03/02 08:50:00;;;;;;;0.30;0.30;;;;;;;11.05;69.04;98025.44;5026869;28;20049;-58
2024/03/02 08:52:29;;;;;;;0.20;0.20;;;;;;;11.39;68.94;98022.88;5031287;28;20049;-57
2024/03/02 08:54:56;;;;;;;0.22;0.22;;;;;;;10.71;71.67;98028.00;5038288;28;20045;-57
2024/03/02 08:57:23;;;;;;;0.30;0.30;;;;;;;11.96;66.83;98028.69;5035732;28;20687;-58
2024/03/02 08:59:50;;;;;;;0.30;0.30;;;;;;;11.13;69.08;98030.25;5037959;28;20579;-58
2024/03/02 09:02:17;;;;;;;0.30;0.30;;;;;;;10.66;72.79;98036.00;5037888;28;20041;-57
2024/03/02 09:04:44;;;;;;;0.30;0.30;;;;;;;9.80;74.85;98032.31;5036083;28;20094;-57
2024/03/02 09:07:12;;;;;;;0.30;0.30;;;;;;;10.88;72.79;98030.31;5032585;28;20045;-57
2024/03/02 09:09:40;;;;;;;0.30;0.30;;;;;;;10.90;72.48;98034.34;5028751;28;20054;-59
2024/03/02 09:12:08;;;;;;;0.43;0.43;;;;;;;10.09;74.02;98024.56;5027999;28;20055;-58
2024/03/02 09:14:35;;;;;;;0.30;0.30;;;;;;;11.07;70.82;98034.00;5031531;28;20040;-58
2024/03/02 09:17:02;;;;;;;0.30;0.30;;;;;;;11.35;70.40;98029.84;5030317;28;20050;-58
2024/03/02 09:19:30;;;;;;;0.20;0.20;;;;;;;11.35;71.11;98027.16;5028881;28;20056;-58
2024/03/02 09:21:59;;;;;;;0.38;0.38;;;;;;;11.06;71.21;98028.91;5032809;28;20411;-59
2024/03/02 09:24:26;;;;;;;0.20;0.20;;;;;;;11.03;70.69;98024.91;5031857;28;20857;-58
2024/03/02 09:26:55;;;;;;;0.20;0.20;;;;;;;12.28;67.68;98024.66;5030768;28;20208;-58
2024/03/02 09:29:22;;;;;;;0.30;0.30;;;;;;;11.26;67.71;98028.84;5032832;28;20053;-58
2024/03/02 09:34:36;;;;;;;0.30;0.30;;;;;;;10.95;70.79;98020.91;5037282;28;20048;-58
2024/03/02 09:37:07;;;;;;;0.22;0.22;;;;;;;11.16;70.66;98023.53;5032256;28;20049;-58
2024/03/02 09:39:37;;;;;;;0.30;0.30;;;;;;;11.76;67.78;98016.19;5032129;28;20055;-58
2024/03/02 09:42:08;;;;;;;0.30;0.30;;;;;;;11.58;67.72;98014.16;5025055;28;20046;-57
2024/03/02 09:44:38;;;;;;;0.30;0.30;;;;;;;11.36;69.40;98019.94;5045532;28;20049;-58
2024/03/02 09:47:09;;;;;;;0.30;0.30;;;;;;;11.29;69.91;98020.25;5025308;28;20045;-57
2024/03/02 09:49:37;;;;;;;0.30;0.30;;;;;;;10.63;72.04;98028.53;5033947;28;20049;-58
2024/03/02 09:52:09;;;;;;;0.23;0.23;;;;;;;11.30;69.63;98016.47;5029090;28;20049;-58
2024/03/02 09:54:41;;;;;;;0.30;0.30;;;;;;;11.73;68.51;98026.69;5009468;28;20076;-58
2024/03/02 09:57:11;;;;;;;0.30;0.30;;;;;;;12.19;66.69;98021.00;5034158;28;20495;-58
2024/03/02 09:59:39;;;;;;;0.30;0.30;;;;;;;12.02;67.04;98019.50;5033476;28;20149;-58
2024/03/02 10:02:07;;;;;;;0.20;0.20;;;;;;;10.91;70.78;98017.19;5040383;28;20045;-58
2024/03/02 10:04:35;;;;;;;0.20;0.20;;;;;;;11.25;71.41;98013.81;5035369;28;20053;-58
2024/03/02 10:07:13;;;;;;;0.30;0.30;;;;;;;10.85;71.70;98009.44;5030840;28;20054;-58
2024/03/02 10:09:41;;;;;;;0.40;0.40;;;;;;;11.13;72.08;98008.81;5028170;28;20049;-56
2024/03/02 10:12:11;;;;;;;0.30;0.30;;;;;;;11.86;69.40;98009.97;5034155;28;20103;-58
2024/03/02 10:14:38;;;;;;;0.20;0.20;;;;;;;11.62;70.34;98005.28;5034662;28;20049;-58
2024/03/02 10:17:06;;;;;;;0.30;0.30;;;;;;;13.31;63.73;98003.66;5029740;28;20166;-58
2024/03/02 10:19:34;;;;;;;0.20;0.20;;;;;;;12.41;65.96;98004.41;5031740;28;20075;-58
2024/03/02 10:22:02;;;;;;;0.28;0.28;;;;;;;12.27;66.61;98002.38;5028173;28;20091;-58
2024/03/02 10:24:37;;;;;;;0.30;0.30;;;;;;;13.00;65.59;98005.88;5031259;28;20037;-58
2024/03/02 10:27:08;;;;;;;0.20;0.20;;;;;;;12.27;66.55;98006.94;5025728;28;20496;-58
2024/03/02 10:29:40;;;;;;;0.20;0.20;;;;;;;11.31;69.96;98002.00;5029552;28;20046;-58
2024/03/02 10:32:09;;;;;;;0.30;0.30;;;;;;;11.43;69.51;98010.50;5023659;28;20087;-58
2024/03/02 10:34:37;;;;;;;0.28;0.28;;;;;;;11.72;69.90;98017.84;5033586;28;20558;-57
2024/03/02 10:37:04;;;;;;;0.30;0.30;;;;;;;12.57;68.10;98005.84;5023253;28;20053;-57
2024/03/02 10:39:31;;;;;;;0.20;0.20;;;;;;;12.21;69.03;97998.13;5028561;28;20065;-58
2024/03/02 10:41:59;;;;;;;0.20;0.20;;;;;;;12.92;65.21;98003.84;5037397;28;20055;-58
2024/03/02 10:44:26;;;;;;;0.13;0.13;;;;;;;11.60;71.64;98009.31;5030186;28;20044;-58
2024/03/02 10:46:54;;;;;;;0.20;0.20;;;;;;;10.89;73.34;98013.97;5027466;28;20041;-58
2024/03/02 10:49:22;;;;;;;0.20;0.20;;;;;;;11.29;73.97;97998.00;5034638;28;20053;-58
2024/03/02 10:51:49;;;;;;;0.30;0.30;;;;;;;11.50;73.31;98002.13;5027178;28;20104;-58
2024/03/02 10:54:18;;;;;;;0.20;0.20;;;;;;;11.23;74.56;98005.25;5022609;28;20052;-57
2024/03/02 10:56:45;;;;;;;0.28;0.28;;;;;;;11.66;74.04;97994.81;5031799;28;20451;-58
2024/03/02 10:59:18;;;;;;;0.28;0.28;;;;;;;11.01;75.79;97998.38;5031063;28;20091;-57
2024/03/02 11:01:45;;;;;;;0.25;0.25;;;;;;;11.33;74.69;97991.78;5027756;28;20049;-58
2024/03/02 11:04:14;;;;;;;0.20;0.20;;;;;;;11.22;74.86;97992.91;5024564;28;20488;-58
2024/03/02 11:06:42;;;;;;;0.28;0.28;;;;;;;12.81;70.58;97994.31;5026725;28;20041;-58
2024/03/02 11:09:09;;;;;;;0.20;0.20;;;;;;;12.00;72.69;97996.72;5029592;28;20102;-58
2024/03/02 11:11:38;;;;;;;0.17;0.17;;;;;;;11.25;73.66;98004.97;5036184;28;20056;-58
2024/03/02 11:14:08;;;;;;;0.20;0.20;;;;;;;11.15;74.51;98005.81;5033414;28;20110;-58
2024/03/02 11:16:35;;;;;;;0.20;0.20;;;;;;;10.79;77.11;98006.78;5037644;28;20718;-58
2024/03/02 11:19:04;;;;;;;0.20;0.20;;;;;;;10.76;77.21;98011.91;5033769;28;20156;-58
2024/03/02 11:21:32;;;;;;;0.30;0.30;;;;;;;11.52;75.45;97999.19;5036682;28;20154;-58
2024/03/02 11:23:59;;;;;;;0.20;0.20;;;;;;;11.73;74.33;97992.59;5034930;28;20623;-58
2024/03/02 11:26:28;;;;;;;0.20;0.20;;;;;;;11.51;74.68;97990.34;5030416;28;20724;-58
2024/03/02 11:28:55;;;;;;;0.20;0.20;;;;;;;11.81;73.64;97977.78;5039950;28;20073;-57
2024/03/02 11:31:40;;;;;;;0.20;0.20;;;;;;;11.50;71.67;97987.94;5035780;28;20038;-58
2024/03/02 11:34:18;;;;;;;0.30;0.30;;;;;;;11.66;72.94;97976.81;5041759;28;20048;-59
2024/03/02 11:36:47;;;;;;;0.20;0.20;;;;;;;12.55;69.76;97969.59;5034917;28;20041;-58
2024/03/02 11:39:14;;;;;;;0.20;0.20;;;;;;;12.11;70.66;97966.00;5038994;28;20033;-59
2024/03/02 11:41:41;;;;;;;0.28;0.28;;;;;;;12.25;70.39;97964.22;5030389;28;20075;-59
2024/03/02 11:44:11;;;;;;;0.20;0.20;;;;;;;13.19;65.70;97967.47;5038930;28;20385;-59
2024/03/02 11:46:40;;;;;;;;;;;;;;;12.47;67.70;97976.38;5041448;28;20045;-59
2024/03/02 11:49:07;;;;;;;0.20;0.20;;;;;;;12.46;67.35;97961.38;5033244;28;19928;-59